Riviere-Saint-Jean, Canada
Current Conditions -  °F | °C
As of 3:00 PM on Sunday 23 Nov 2014 (Local Time) from CYGV Reporting Station
Clear Clear  
Wind Chill: 13°   Ceiling: Unl
Heat Index: 23°   Visibility: 9mi
Dew Point: 10°   Wind: 9mph
Humidity: 59%   Direction: 280°W
Pressure: 29.93"   Gusts: NA
Location:  50.28°N, 64.33°W
Report Text: CYGV 232000Z AUTO 28008KT 9SM CLR M05/M12 A2993 RMK PRESRR SLP137
Loading
Personal Weather Stations






























Interactive Weather Map New forecast layout! Learn more

10-Day Weather Forecast

Advertisements
Track Severe Weather on mobile